createdAt,value
2017-12-25T08:28:36.278Z,22.80
2017-12-25T08:31:06.486Z,23.00
2017-12-25T08:33:35.643Z,23.10
2017-12-25T08:36:03.604Z,23.10
2017-12-25T08:38:31.434Z,23.10
2017-12-25T08:40:59.311Z,23.00
2017-12-25T08:43:27.132Z,22.70
2017-12-25T08:45:54.994Z,22.80
2017-12-25T08:48:37.521Z,22.80
2017-12-25T08:51:06.808Z,22.70
2017-12-25T08:53:36.029Z,22.60
2017-12-25T08:56:12.297Z,22.70
2017-12-25T08:58:40.163Z,22.80
2017-12-25T09:01:09.226Z,22.80
2017-12-25T09:03:37.130Z,22.80
2017-12-25T09:06:05.242Z,22.70
2017-12-25T09:08:33.186Z,22.40
2017-12-25T09:11:02.564Z,22.40
2017-12-25T09:13:31.432Z,22.60
2017-12-25T09:15:59.479Z,22.60
2017-12-25T09:18:27.612Z,22.50
2017-12-25T09:20:56.607Z,22.40
2017-12-25T09:23:24.531Z,22.40
2017-12-25T09:25:53.503Z,22.50
2017-12-25T09:28:21.393Z,22.50
2017-12-25T09:30:51.150Z,22.50
2017-12-25T09:33:19.043Z,22.50
2017-12-25T09:35:48.648Z,22.40
2017-12-25T09:38:17.417Z,22.40
2017-12-25T09:40:45.419Z,22.30
2017-12-25T09:43:14.136Z,22.20
2017-12-25T09:45:41.946Z,22.20
2017-12-25T09:48:10.528Z,22.20
2017-12-25T09:50:38.618Z,22.10
2017-12-25T09:53:07.272Z,21.70
2017-12-25T09:55:35.133Z,21.70
2017-12-25T09:58:02.988Z,21.70
2017-12-25T10:00:30.918Z,21.80
2017-12-25T10:02:59.625Z,21.90
2017-12-25T10:05:27.470Z,21.80
2017-12-25T10:07:55.439Z,21.80
2017-12-25T10:10:24.232Z,21.80
2017-12-25T10:12:53.348Z,21.70
2017-12-25T10:15:22.771Z,21.70
2017-12-25T10:17:51.692Z,21.60
2017-12-25T10:20:21.182Z,21.60
2017-12-25T10:22:51.486Z,21.50
2017-12-25T10:25:22.085Z,21.50
2017-12-25T10:27:51.165Z,21.50
2017-12-25T10:30:20.436Z,21.40
2017-12-25T10:32:49.536Z,21.30
2017-12-25T10:35:17.890Z,21.60
2017-12-25T10:37:46.098Z,21.30
2017-12-25T10:40:15.050Z,21.00
2017-12-25T10:42:43.810Z,21.10
2017-12-25T10:45:11.998Z,21.00
2017-12-25T10:47:39.977Z,20.30
2017-12-25T10:50:07.793Z,21.00
2017-12-25T10:52:35.735Z,21.60
2017-12-25T10:55:03.583Z,22.00
2017-12-25T10:57:31.503Z,22.20
2017-12-25T10:59:59.368Z,21.60
2017-12-25T11:02:27.197Z,22.00
2017-12-25T11:04:55.076Z,22.50
2017-12-25T11:07:23.686Z,22.70
2017-12-25T11:09:51.486Z,22.60
2017-12-25T11:12:19.316Z,22.80
2017-12-25T11:14:48.559Z,23.00
2017-12-25T11:17:17.435Z,23.00
2017-12-25T11:19:45.368Z,22.80
2017-12-25T11:22:14.016Z,22.60
2017-12-25T11:24:41.974Z,22.60
2017-12-25T11:27:09.744Z,22.40
2017-12-25T11:29:37.567Z,22.60
2017-12-25T11:32:05.353Z,22.80
2017-12-25T11:34:33.184Z,22.20
2017-12-25T11:37:01.088Z,22.70
2017-12-25T11:39:28.874Z,23.10
2017-12-25T11:41:56.658Z,23.30
2017-12-25T11:44:24.434Z,23.30
2017-12-25T11:46:52.250Z,23.40
2017-12-25T11:49:20.112Z,23.70
2017-12-25T11:51:47.889Z,23.00
2017-12-25T11:54:15.765Z,22.60
2017-12-25T11:56:43.636Z,22.60
2017-12-25T11:59:11.457Z,23.20
2017-12-25T12:01:39.227Z,23.30
2017-12-25T12:04:07.070Z,23.30
2017-12-25T12:06:34.883Z,23.70
2017-12-25T12:09:02.704Z,23.70
2017-12-25T12:11:30.541Z,23.80
2017-12-25T12:13:58.410Z,23.70
2017-12-25T12:16:26.285Z,23.80
2017-12-25T12:18:54.612Z,23.90
2017-12-25T12:21:22.417Z,24.10
2017-12-25T12:23:50.175Z,24.20
2017-12-25T12:26:17.973Z,23.80
2017-12-25T12:28:45.830Z,23.80
2017-12-25T12:31:14.486Z,24.20
2017-12-25T12:33:42.240Z,24.10
2017-12-25T12:36:10.035Z,24.30
2017-12-25T12:38:37.903Z,23.90
2017-12-25T12:41:06.486Z,24.20
2017-12-25T12:43:34.309Z,24.10
2017-12-25T12:46:02.099Z,24.30
2017-12-25T12:48:30.665Z,24.50
2017-12-25T12:50:58.381Z,24.40
2017-12-25T12:53:26.190Z,24.60
2017-12-25T12:55:53.914Z,24.50
2017-12-25T12:58:21.766Z,24.80
2017-12-25T13:00:49.593Z,24.90
2017-12-25T13:03:17.367Z,24.60
2017-12-25T13:05:45.240Z,24.40
2017-12-25T13:08:13.064Z,24.70
2017-12-25T13:10:40.921Z,24.90
2017-12-25T13:13:08.795Z,24.40
2017-12-25T13:15:36.650Z,24.70
2017-12-25T13:18:04.462Z,24.80
2017-12-25T13:20:32.360Z,25.20
2017-12-25T13:23:00.192Z,24.70
2017-12-25T13:25:27.986Z,24.60
2017-12-25T13:27:55.807Z,24.80
2017-12-25T13:30:23.579Z,25.00
2017-12-25T13:32:51.350Z,25.10
2017-12-25T13:35:19.228Z,25.30
2017-12-25T13:37:47.086Z,25.40
2017-12-25T13:40:15.224Z,25.50
2017-12-25T13:42:50.922Z,25.50
2017-12-25T13:45:18.840Z,25.60
2017-12-25T13:47:47.394Z,25.20
2017-12-25T13:50:15.257Z,25.10
2017-12-25T13:52:43.095Z,25.10
2017-12-25T13:55:11.054Z,24.90
2017-12-25T13:57:38.829Z,24.50
2017-12-25T14:00:06.661Z,24.80
2017-12-25T14:02:34.673Z,25.30
2017-12-25T14:05:03.087Z,24.90
2017-12-25T14:07:30.985Z,24.10
2017-12-25T14:09:58.854Z,24.30
2017-12-25T14:12:26.730Z,24.60
2017-12-25T14:14:54.580Z,24.60
2017-12-25T14:17:22.445Z,23.80
2017-12-25T14:19:50.234Z,24.70
2017-12-25T14:22:18.034Z,25.10
2017-12-25T14:24:45.905Z,25.00
2017-12-25T14:27:13.752Z,24.70
2017-12-25T14:29:42.432Z,24.70
2017-12-25T14:32:11.072Z,24.90
2017-12-25T14:34:39.178Z,24.80
2017-12-25T14:37:08.426Z,24.60
2017-12-25T14:39:37.184Z,24.60
2017-12-25T14:42:05.529Z,24.50
2017-12-25T14:44:33.901Z,24.60
2017-12-25T14:47:02.395Z,24.80
2017-12-25T14:49:32.475Z,25.00
2017-12-25T14:52:03.774Z,25.30
2017-12-25T14:55:08.814Z,25.40
2017-12-25T14:57:37.019Z,25.50
2017-12-25T15:00:05.321Z,25.60
2017-12-25T15:02:33.598Z,25.30
2017-12-25T15:05:01.845Z,25.30
2017-12-25T15:07:30.450Z,25.80
2017-12-25T15:09:58.295Z,25.70
2017-12-25T15:12:26.108Z,25.80
2017-12-25T15:14:54.012Z,25.60
2017-12-25T15:17:21.967Z,25.50
2017-12-25T15:19:49.864Z,25.70
2017-12-25T15:22:17.695Z,25.80
2017-12-25T15:24:48.373Z,25.80
2017-12-25T15:27:16.173Z,25.90
2017-12-25T15:29:49.955Z,25.90
2017-12-25T15:32:19.710Z,25.90
2017-12-25T15:34:56.116Z,25.90
2017-12-25T15:37:24.125Z,25.80
2017-12-25T15:39:52.895Z,25.90
2017-12-25T15:42:21.986Z,25.40
2017-12-25T15:44:49.868Z,25.20
2017-12-25T15:47:17.682Z,24.90
2017-12-25T15:49:45.593Z,24.80
2017-12-25T15:52:13.493Z,24.80
2017-12-25T15:54:42.142Z,25.30
2017-12-25T15:57:09.964Z,25.20
2017-12-25T15:59:37.823Z,25.50
2017-12-25T16:02:05.650Z,25.40
2017-12-25T16:04:33.444Z,24.30
2017-12-25T16:07:01.294Z,24.60
2017-12-25T16:09:29.082Z,24.60
2017-12-25T16:11:56.910Z,24.80
2017-12-25T16:14:24.769Z,24.90
2017-12-25T16:16:52.590Z,25.20
2017-12-25T16:19:21.182Z,24.70
2017-12-25T16:21:49.794Z,24.90
2017-12-25T16:24:17.604Z,24.90
2017-12-25T16:26:45.473Z,25.20
2017-12-25T16:29:13.267Z,24.70
2017-12-25T16:31:41.554Z,24.80
2017-12-25T16:34:09.375Z,25.00
2017-12-25T16:36:37.195Z,24.80
2017-12-25T16:39:05.285Z,24.90
2017-12-25T16:41:33.128Z,25.10
2017-12-25T16:44:01.735Z,24.80
2017-12-25T16:46:29.600Z,24.80
2017-12-25T16:48:57.504Z,24.60
2017-12-25T16:51:25.407Z,24.50
2017-12-25T16:53:53.340Z,24.80
2017-12-25T16:56:21.274Z,24.90
2017-12-25T16:58:49.810Z,24.80
2017-12-25T17:01:18.179Z,24.70
2017-12-25T17:03:46.037Z,24.70
2017-12-25T17:06:13.902Z,24.40
2017-12-25T17:08:41.686Z,24.50
2017-12-25T17:11:09.539Z,24.70
2017-12-25T17:13:37.371Z,24.90
2017-12-25T17:16:05.266Z,25.00
2017-12-25T17:18:33.232Z,24.70
2017-12-25T17:21:01.170Z,24.30
2017-12-25T17:23:31.042Z,24.70
2017-12-25T17:25:58.955Z,24.60
2017-12-25T17:28:26.877Z,24.60
2017-12-25T17:30:56.373Z,24.40
2017-12-25T17:33:26.813Z,24.10
2017-12-25T17:35:54.749Z,24.10
2017-12-25T17:41:31.040Z,24.20
2017-12-25T17:43:58.873Z,23.40
2017-12-25T17:46:27.418Z,21.00
2017-12-25T17:48:55.205Z,20.90
2017-12-25T17:51:23.019Z,20.50
2017-12-25T17:53:50.847Z,21.10
2017-12-25T17:56:19.578Z,20.40
2017-12-25T17:58:47.374Z,20.40
2017-12-25T18:01:15.197Z,19.80
2017-12-25T18:03:42.999Z,19.60
2017-12-25T18:06:11.142Z,19.20
2017-12-25T18:08:40.619Z,18.90
2017-12-25T18:11:09.268Z,18.60
2017-12-25T18:13:37.060Z,18.50
2017-12-25T18:16:05.889Z,18.50
2017-12-25T18:18:33.897Z,18.40
2017-12-25T18:21:01.723Z,18.30
2017-12-25T18:23:29.628Z,18.10
2017-12-25T18:25:57.704Z,18.20
2017-12-25T18:28:25.668Z,20.20
2017-12-25T18:30:53.973Z,21.50
2017-12-25T18:33:23.400Z,22.60
2017-12-25T18:35:52.239Z,22.90
2017-12-25T18:38:20.165Z,22.80
2017-12-25T18:40:48.303Z,23.10
2017-12-25T18:43:16.857Z,23.30
2017-12-25T18:45:46.996Z,23.30
2017-12-25T18:48:15.656Z,23.40
2017-12-25T18:50:43.533Z,23.50
2017-12-25T18:53:11.412Z,23.70
2017-12-25T18:55:39.175Z,23.80
2017-12-25T18:58:07.052Z,23.90
2017-12-25T19:00:35.714Z,23.70
2017-12-25T19:03:03.653Z,23.70
2017-12-25T19:05:34.311Z,23.60
2017-12-25T19:08:02.690Z,23.60
2017-12-25T19:10:30.463Z,23.60
2017-12-25T19:12:58.324Z,23.50
2017-12-25T19:15:26.231Z,23.60
2017-12-25T19:17:54.834Z,23.40
2017-12-25T19:20:22.663Z,23.40
2017-12-25T19:22:50.608Z,23.60
2017-12-25T19:25:18.401Z,23.80
2017-12-25T19:27:47.065Z,23.80
2017-12-25T19:30:14.931Z,23.70
2017-12-25T19:32:42.762Z,23.80
2017-12-25T19:35:10.608Z,23.80
2017-12-25T19:37:38.492Z,23.70
2017-12-25T19:40:06.326Z,23.50
2017-12-25T19:42:35.070Z,23.60
2017-12-25T19:45:03.806Z,23.80
2017-12-25T19:47:31.604Z,23.80
2017-12-25T19:49:59.419Z,23.80
2017-12-25T19:52:27.974Z,23.70
2017-12-25T19:54:55.807Z,23.60
2017-12-25T19:57:23.659Z,23.50
2017-12-25T19:59:51.616Z,23.50
2017-12-25T20:02:19.493Z,22.50
2017-12-25T20:04:47.275Z,20.90
2017-12-25T20:07:15.048Z,20.30
2017-12-25T20:09:42.875Z,20.90
2017-12-25T20:12:11.515Z,19.30
2017-12-25T20:14:39.452Z,19.30
2017-12-25T20:17:07.348Z,18.40
2017-12-25T20:19:36.241Z,19.80
2017-12-25T20:22:04.777Z,20.80
2017-12-25T20:24:33.111Z,21.70
2017-12-25T20:27:02.614Z,22.30
2017-12-25T20:29:31.270Z,22.60
2017-12-25T20:32:00.417Z,22.80
2017-12-25T20:34:29.074Z,23.00
2017-12-25T20:36:57.745Z,22.90
2017-12-25T20:39:26.201Z,21.70
2017-12-25T20:41:54.833Z,21.70
2017-12-25T20:44:23.477Z,22.30
2017-12-25T20:46:51.708Z,22.70
2017-12-25T20:49:20.386Z,23.00
2017-12-25T20:51:48.299Z,23.10
2017-12-25T20:54:16.212Z,23.30
2017-12-25T20:56:44.606Z,23.30
2017-12-25T20:59:13.681Z,23.40
2017-12-25T21:01:43.290Z,23.40
2017-12-25T21:04:11.868Z,23.50
2017-12-25T21:06:40.196Z,22.70
2017-12-25T21:09:09.696Z,22.40
2017-12-25T21:11:38.502Z,23.20
2017-12-25T21:14:06.310Z,23.10
2017-12-25T21:16:34.148Z,23.40
2017-12-25T21:19:02.043Z,23.50
2017-12-25T21:21:29.816Z,23.40
2017-12-25T21:23:57.642Z,23.40
2017-12-25T21:26:25.472Z,23.50
2017-12-25T21:28:53.353Z,23.30
2017-12-25T21:31:21.146Z,23.40
2017-12-25T21:33:49.076Z,23.50
2017-12-25T21:36:17.793Z,23.60
2017-12-25T21:38:45.592Z,23.60
